NO-0072 weather

Airlift Ljosland
Ljosland, Vest-Agder, Norway

Public forecast

Using degrees Celsius for public forecast. Weather courtesy of forecast.io.

Closest aviation weather report (METAR) to Airlift Ljosland

Closest report is Kristiansand Airport, 42.0 nm (77.7 km) SSE. Retrieved 2020/06/04 00:20 UTC (5 minutes ago):

ENCN 040020Z AUTO 03004KT 9000 OVC005/// 10/10 Q1002

Closest aviation forecast (TAF) to Airlift Ljosland

Forecast is more than 12 hours old.

Closest forecast is Kristiansand Airport, 42.0 nm (77.7 km) SSE. Retrieved 2016/05/06 12:39 UTC (4 years ago):

TAF TAF ENCN 061100Z 0612/0712 14008KT 9999 FEW040